| Time | Avg. Air Temp | Dew Point | Avg. Rel Humidity | Avg. 2 Min Wind Speed | Max Gust Velocity | MGV Time | MGV Direction | Avg. Spot Wind Velocity |
|---|---|---|---|---|---|---|---|---|
| 2026-05-07 12:20:00 | 3° C | -3° C | 67% | 5 km/h | 10 km/h | 12:16:00 | NW | 5 km/h |
| 11:20:00 | 3° C | 0° C | 83% | 4 km/h | 6 km/h | 11:20:00 | N | 4 km/h |
| 10:20:00 | 1° C | 0° C | 92% | 3 km/h | 5 km/h | 10:20:00 | NE | 4 km/h |
| 09:20:00 | 1° C | -0° C | 93% | 7 km/h | 9 km/h | 09:20:00 | NW | 6 km/h |
| 08:20:00 | 0° C | 0° C | 100% | 10 km/h | 11 km/h | 08:18:00 | NW | 9 km/h |
| 07:20:00 | 1° C | 1° C | 100% | 15 km/h | 18 km/h | 07:18:00 | NW | 14 km/h |
| 06:20:00 | 1° C | 1° C | 100% | 17 km/h | 22 km/h | 06:16:00 | NW | 19 km/h |
| 05:20:00 | 2° C | 2° C | 100% | 11 km/h | 22 km/h | 05:16:00 | W | 14 km/h |
| 04:20:00 | 2° C | 2° C | 100% | 17 km/h | 21 km/h | 04:20:00 | W | 17 km/h |
| 03:20:00 | 2° C | 2° C | 100% | 22 km/h | 25 km/h | 03:20:00 | W | 22 km/h |
| 02:20:00 | 2° C | 2° C | 100% | 21 km/h | 27 km/h | 02:18:00 | W | 21 km/h |
| 01:20:00 | 3° C | 1° C | 88% | 18 km/h | 25 km/h | 01:17:00 | W | 21 km/h |
| 00:20:00 | 4° C | 1° C | 81% | 21 km/h | 24 km/h | 00:16:00 | W | 20 km/h |
| 23:20:00 | 4° C | 0° C | 78% | 26 km/h | 30 km/h | 23:19:00 | W | 23 km/h |
| 22:20:00 | 4° C | 0° C | 78% | 10 km/h | 17 km/h | 22:18:00 | W | 12 km/h |
| 21:20:00 | 4° C | 1° C | 80% | 15 km/h | 16 km/h | 21:20:00 | SW | 15 km/h |
| 20:20:00 | 2° C | 2° C | 100% | 17 km/h | 36 km/h | 20:18:00 | NE | 24 km/h |
| 19:20:00 | 6° C | -1° C | 60% | 16 km/h | 30 km/h | 19:16:00 | W | 16 km/h |
| 18:20:00 | 8° C | -1° C | 53% | 1 km/h | 4 km/h | 18:16:00 | NE | 1 km/h |
| 17:20:00 | 8° C | -0° C | 56% | 16 km/h | 21 km/h | 17:19:00 | SW | 13 km/h |
| 16:20:00 | 7° C | -0° C | 58% | 21 km/h | 29 km/h | 16:18:00 | W | 21 km/h |
| 15:20:00 | 7° C | -1° C | 57% | 14 km/h | 18 km/h | 15:19:00 | W | 13 km/h |
| 14:20:00 | 6° C | -0° C | 62% | 18 km/h | 21 km/h | 14:17:00 | SW | 18 km/h |
| 13:20:00 | 6° C | -0° C | 64% | 14 km/h | 19 km/h | 13:20:00 | SW | 12 km/h |
Subpeak Weather
| Time | Avg. Air Temp | Dew Point | Avg. Rel Humidity | Avg. 2 Min Wind Speed | Max Gust Velocity | MGV Time | MGV Direction | Avg. Spot Wind Velocity |
|---|---|---|---|---|---|---|---|---|
| 2026-05-07 12:20:00 | 3° C | -3° C | 67% | 5 km/h | 10 km/h | 12:16:00 | NW | 5 km/h |
| 12:15:00 | 3° C | -3° C | 69% | 5 km/h | 10 km/h | 12:15:00 | NW | 6 km/h |
| 12:10:00 | 3° C | -2° C | 71% | 8 km/h | 17 km/h | 12:08:00 | W | 9 km/h |
| 12:05:00 | 3° C | -2° C | 65% | 9 km/h | 12 km/h | 12:04:00 | W | 7 km/h |
| 12:00:00 | 3° C | -2° C | 68% | 6 km/h | 11 km/h | 11:56:00 | W | 6 km/h |
| 11:55:00 | 3° C | -1° C | 71% | 4 km/h | 8 km/h | 11:52:00 | NW | 4 km/h |
| 11:50:00 | 4° C | -1° C | 73% | 2 km/h | 8 km/h | 11:48:00 | NW | 2 km/h |
| 11:45:00 | 3° C | -0° C | 75% | 1 km/h | 3 km/h | 11:44:00 | NW | 1 km/h |
| 11:40:00 | 3° C | 0° C | 78% | 1 km/h | 5 km/h | 11:37:00 | NW | 2 km/h |
| 11:35:00 | 3° C | -1° C | 76% | 0 km/h | 4 km/h | 11:31:00 | NE | 1 km/h |
| 11:30:00 | 2° C | -2° C | 76% | 5 km/h | 11 km/h | 11:26:00 | NE | 6 km/h |
| 11:25:00 | 3° C | -1° C | 81% | 9 km/h | 10 km/h | 11:24:00 | NE | 8 km/h |
| 11:20:00 | 3° C | 0° C | 83% | 4 km/h | 6 km/h | 11:20:00 | N | 4 km/h |




